Time;durP1;ratioP1;P1;durP2;ratioP2;P2;SDS_P1;SDS_P2;PMS_P1;PMS_P2;Temp;Humidity;BMP_temperature;BMP_pressure;BME280_temperature;BME280_humidity;BME280_pressure;Samples;Min_cycle;Max_cycle;Signal;HPM_P1;HPM_P2
2023/02/10 00:02:10;;;;;;;;;;;;;;;-2.88;66.70;99774.94;4978431;28;19930;-60
2023/02/10 00:04:38;;;;;;;;;;;;;;;-2.90;67.06;99775.13;5002363;28;19933;-59
2023/02/10 00:07:05;;;;;;;;;;;;;;;-2.81;66.53;99767.91;4997753;28;19973;-59
2023/02/10 00:09:33;;;;;;;;;;;;;;;-2.81;66.82;99765.25;4987618;28;19948;-59
2023/02/10 00:12:03;;;;;;;;;;;;;;;-2.81;66.07;99751.97;4984117;28;20288;-61
2023/02/10 00:14:30;;;;;;;;;;;;;;;-2.83;66.01;99753.94;4983783;28;19932;-60
2023/02/10 00:16:59;;;;;;;;;;;;;;;-2.86;66.45;99759.66;4975106;28;20372;-59
2023/02/10 00:19:28;;;;;;;;;;;;;;;-2.81;66.71;99767.91;4986191;28;19933;-59
2023/02/10 00:21:57;;;;;;;;;;;;;;;-2.85;66.12;99766.63;4976055;28;19926;-59
2023/02/10 00:24:25;;;;;;;;;;;;;;;-2.77;66.08;99766.56;4978921;28;19973;-59
2023/02/10 00:26:53;;;;;;;;;;;;;;;-2.82;65.74;99774.25;4990291;28;20394;-59
2023/02/10 00:29:25;;;;;;;;;;;;;;;-2.78;66.02;99764.88;4974887;28;19939;-59
2023/02/10 00:31:56;;;;;;;;;;;;;;;-2.99;66.45;99770.03;4982909;28;19930;-59
2023/02/10 00:34:24;;;;;;;;;;;;;;;-3.14;67.04;99771.81;4979678;28;20020;-59
2023/02/10 00:36:52;;;;;;;;;;;;;;;-3.21;66.64;99777.03;4969454;28;19930;-59
2023/02/10 00:39:20;;;;;;;;;;;;;;;-3.34;67.38;99780.28;4979276;28;19926;-59
2023/02/10 00:41:47;;;;;;;;;;;;;;;-3.43;67.91;99779.47;4969359;28;20166;-59
2023/02/10 00:44:15;;;;;;;;;;;;;;;-3.61;68.37;99786.91;4967359;28;19936;-58
2023/02/10 00:46:45;;;;;;;;;;;;;;;-3.85;69.16;99790.50;4954916;28;19926;-59
2023/02/10 00:49:15;;;;;;;;;;;;;;;-3.74;68.98;99787.44;4982957;28;19937;-59
2023/02/10 00:51:43;;;;;;;;;;;;;;;-3.66;69.10;99783.13;4971589;28;19926;-59
2023/02/10 00:54:13;;;;;;;;;;;;;;;-3.64;69.09;99781.94;4980550;28;19934;-59
2023/02/10 00:56:45;;;;;;;;;;;;;;;-3.57;69.51;99782.06;4982211;28;19982;-60
2023/02/10 00:59:13;;;;;;;;;;;;;;;-3.55;68.94;99785.38;4969230;28;19930;-60
2023/02/10 01:01:41;;;;;;;;;;;;;;;-3.50;68.91;99788.34;4982063;28;19933;-59
2023/02/10 01:04:10;;;;;;;;;;;;;;;-3.50;68.59;99785.69;4984338;28;19925;-59
2023/02/10 01:06:38;;;;;;;;;;;;;;;-3.61;68.96;99786.91;4991403;28;20371;-59
2023/02/10 01:09:08;;;;;;;;;;;;;;;-3.49;68.49;99792.66;4983143;28;20443;-59
2023/02/10 01:11:36;;;;;;;;;;;;;;;-3.57;68.41;99798.00;4972251;28;19977;-59
2023/02/10 01:14:04;;;;;;;;;;;;;;;-3.55;68.68;99796.00;4974393;28;20442;-60
2023/02/10 01:16:32;;;;;;;;;;;;;;;-3.58;68.60;99796.34;4978914;28;19933;-59
2023/02/10 01:19:00;;;;;;;;;;;;;;;-3.55;68.46;99801.31;4987633;28;19925;-59
2023/02/10 01:21:33;;;;;;;;;;;;;;;-3.58;68.76;99799.00;4977649;28;19932;-59
2023/02/10 01:24:02;;;;;;;;;;;;;;;-3.54;68.65;99803.78;4970549;28;20374;-59
2023/02/10 01:26:31;;;;;;;;;;;;;;;-3.54;68.47;99808.28;4972094;28;20382;-59
2023/02/10 01:28:59;;;;;;;;;;;;;;;-3.54;68.80;99808.28;4977567;28;19926;-60
2023/02/10 01:31:27;;;;;;;;;;;;;;;-3.63;69.09;99804.00;4962447;28;19937;-59
2023/02/10 01:33:57;;;;;;;;;;;;;;;-3.52;68.72;99803.63;4984012;28;20039;-59
2023/02/10 01:36:26;;;;;;;;;;;;;;;-3.50;68.52;99799.78;4966937;28;19926;-59
2023/02/10 01:38:56;;;;;;;;;;;;;;;-3.54;67.91;99801.13;4989907;28;19926;-60
2023/02/10 01:41:24;;;;;;;;;;;;;;;-3.57;68.24;99803.31;4952918;28;20488;-59
2023/02/10 01:43:54;;;;;;;;;;;;;;;-3.54;68.71;99808.28;4961104;28;19930;-60
2023/02/10 01:46:22;;;;;;;;;;;;;;;-3.57;68.09;99814.78;4951407;28;19933;-60
2023/02/10 01:48:50;;;;;;;;;;;;;;;-3.56;68.30;99812.97;4965577;28;19937;-60
2023/02/10 01:54:14;;;;;;;;;;;;;;;-3.67;68.15;99821.28;4972122;28;19981;-59
2023/02/10 01:56:43;;;;;;;;;;;;;;;-3.65;68.87;99817.47;4973465;28;19940;-60
2023/02/10 01:59:13;;;;;;;;;;;;;;;-3.67;68.17;99814.16;4994166;28;20371;-59
2023/02/10 02:01:41;;;;;;;;;;;;;;;-3.60;68.69;99815.13;4985253;28;19926;-59
2023/02/10 02:04:09;;;;;;;;;;;;;;;-3.63;68.14;99817.28;5001469;28;19933;-59
2023/02/10 02:06:38;;;;;;;;;;;;;;;-3.63;68.15;99815.44;5013981;28;20032;-60
2023/02/10 02:09:07;;;;;;;;;;;;;;;-3.78;68.20;99807.41;4993490;28;19934;-60
2023/02/10 02:11:40;;;;;;;;;;;;;;;-3.76;68.00;99810.72;4997173;28;19933;-59
2023/02/10 02:14:14;;;;;;;;;;;;;;;-3.94;68.33;99815.44;5000759;28;20405;-60
2023/02/10 02:16:45;;;;;;;;;;;;;;;-4.02;69.36;99808.31;4986152;28;19925;-60
2023/02/10 02:19:18;;;;;;;;;;;;;;;-4.01;69.16;99809.13;4984831;28;19968;-60
2023/02/10 02:21:58;;;;;;;;;;;;;;;-4.02;69.04;99808.31;4978262;28;20393;-60
2023/02/10 02:24:50;;;;;;;;;;;;;;;-4.23;69.24;99803.56;4988028;28;19926;-60
2023/02/10 02:27:28;;;;;;;;;;;;;;;-4.42;69.98;99803.09;4963629;28;19925;-59
2023/02/10 02:30:05;;;;;;;;;;;;;;;-4.49;70.74;99819.69;4990713;28;20062;-60
2023/02/10 02:32:34;;;;;;;;;;;;;;;-4.46;70.25;99818.53;5005030;28;19926;-60
2023/02/10 02:35:03;;;;;;;;;;;;;;;-4.50;70.11;99822.50;5005677;28;19930;-60
2023/02/10 02:37:31;;;;;;;;;;;;;;;-4.61;70.87;99826.34;5002368;28;19929;-61
2023/02/10 02:39:59;;;;;;;;;;;;;;;-4.60;71.10;99833.28;5001106;28;19991;-60
2023/02/10 02:42:29;;;;;;;;;;;;;;;-4.50;71.20;99833.13;4993087;28;20006;-60
2023/02/10 02:44:59;;;;;;;;;;;;;;;-4.45;70.37;99833.44;4993300;28;19945;-60
2023/02/10 02:47:30;;;;;;;;;;;;;;;-4.33;70.27;99833.94;4985038;28;19933;-60
2023/02/10 02:53:20;;;;;;;;;;;;;;;-4.14;69.54;99840.72;5006862;28;20394;-60
2023/02/10 02:56:15;;;;;;;;;;;;;;;-4.10;69.31;99839.34;5001538;28;20023;-60
2023/02/10 02:58:47;;;;;;;;;;;;;;;-4.10;69.20;99836.69;4990053;28;20375;-60
2023/02/10 03:01:15;;;;;;;;;;;;;;;-4.09;68.13;99835.72;4980963;28;19932;-60
2023/02/10 03:03:44;;;;;;;;;;;;;;;-4.13;69.10;99842.34;4983086;28;20284;-60
2023/02/10 03:06:14;;;;;;;;;;;;;;;-4.14;69.04;99840.72;5004420;28;19933;-61
2023/02/10 03:09:07;;;;;;;;;;;;;;;-4.11;68.81;99843.00;4990858;28;20371;-60
2023/02/10 03:11:35;;;;;;;;;;;;;;;-4.11;68.35;99837.69;5002036;28;19948;-61
2023/02/10 03:14:03;;;;;;;;;;;;;;;-4.23;68.23;99822.13;5007958;28;20329;-61
2023/02/10 03:16:31;;;;;;;;;;;;;;;-4.13;68.31;99837.06;4989008;28;19933;-61
2023/02/10 03:18:59;;;;;;;;;;;;;;;-4.28;68.29;99837.72;5000053;28;19933;-61
2023/02/10 03:21:30;;;;;;;;;;;;;;;-4.41;68.62;99832.13;5007954;28;20362;-61
2023/02/10 03:24:00;;;;;;;;;;;;;;;-4.38;68.60;99834.44;5008741;28;19938;-60
2023/02/10 03:26:29;;;;;;;;;;;;;;;-4.33;68.61;99833.94;5007121;28;19929;-60
2023/02/10 03:28:57;;;;;;;;;;;;;;;-4.26;68.16;99833.09;5005910;28;20023;-60
2023/02/10 03:31:25;;;;;;;;;;;;;;;-4.29;68.02;99829.94;5001468;28;19926;-65
2023/02/10 03:33:53;;;;;;;;;;;;;;;-4.26;68.14;99833.09;5006159;28;19952;-60
2023/02/10 03:36:21;;;;;;;;;;;;;;;-4.23;67.92;99830.09;5002628;28;20406;-60
2023/02/10 03:38:51;;;;;;;;;;;;;;;-4.27;68.07;99831.41;4989894;28;19952;-60
2023/02/10 03:41:19;;;;;;;;;;;;;;;-4.32;67.93;99836.41;5001334;28;19930;-60
2023/02/10 03:43:47;;;;;;;;;;;;;;;-4.41;68.23;99832.13;5001710;28;19938;-60
2023/02/10 03:46:18;;;;;;;;;;;;;;;-4.42;68.78;99840.22;4994255;28;20460;-60
2023/02/10 03:48:46;;;;;;;;;;;;;;;-4.36;68.91;99840.41;4990948;28;19930;-60
2023/02/10 03:51:14;;;;;;;;;;;;;;;-4.39;68.30;99839.91;4999365;28;19926;-60
2023/02/10 03:53:42;;;;;;;;;;;;;;;-4.49;68.32;99842.72;5001500;28;19926;-60
2023/02/10 03:56:11;;;;;;;;;;;;;;;-4.52;69.04;99851.88;5005703;28;19949;-60
2023/02/10 03:58:39;;;;;;;;;;;;;;;-4.54;68.96;99850.34;5001099;28;19960;-60
2023/02/10 04:01:11;;;;;;;;;;;;;;;-4.56;69.30;99855.00;5001739;28;20324;-61
2023/02/10 04:03:40;;;;;;;;;;;;;;;-4.50;69.15;99855.16;5003459;28;19941;-60
2023/02/10 04:06:08;;;;;;;;;;;;;;;-4.62;69.24;99845.91;4988762;28;20041;-62
2023/02/10 04:08:36;;;;;;;;;;;;;;;-4.49;68.85;99854.16;4974243;28;19925;-60
2023/02/10 04:11:04;;;;;;;;;;;;;;;-4.45;68.62;99856.50;5007443;28;19933;-60
2023/02/10 04:13:33;;;;;;;;;;;;;;;-4.50;69.03;99855.16;4984193;28;19930;-60
2023/02/10 04:16:02;;;;;;;;;;;;;;;-4.45;68.87;99861.81;4986961;28;19926;-61
2023/02/10 04:18:30;;;;;;;;;;;;;;;-4.39;68.52;99861.97;4986134;28;19930;-60
2023/02/10 04:21:00;;;;;;;;;;;;;;;-4.48;68.36;99868.25;5009182;28;20286;-60
2023/02/10 04:23:28;;;;;;;;;;;;;;;-4.76;69.04;99863.28;4994059;28;19929;-61
2023/02/10 04:25:56;;;;;;;;;;;;;;;-4.76;69.27;99881.84;5024657;28;19925;-60
2023/02/10 04:28:27;;;;;;;;;;;;;;;-4.85;69.25;99882.81;5017011;28;19930;-60
2023/02/10 04:30:56;;;;;;;;;;;;;;;-4.79;69.97;99887.50;4985588;28;19952;-60
2023/02/10 04:33:25;;;;;;;;;;;;;;;-4.65;69.15;99883.34;4991747;28;20290;-60
2023/02/10 04:35:55;;;;;;;;;;;;;;;-4.53;69.54;99881.19;5008312;28;19933;-60
2023/02/10 04:38:25;;;;;;;;;;;;;;;-4.54;68.41;99890.97;4995761;28;19929;-60
2023/02/10 04:40:54;;;;;;;;;;;;;;;-4.80;69.10;99885.00;4987141;28;19925;-60
2023/02/10 04:43:22;;;;;;;;;;;;;;;-4.91;69.17;99887.97;4982071;28;20272;-60
2023/02/10 04:46:16;;;;;;;;;;;;;;;-5.03;69.66;99900.69;5001487;28;19932;-60
2023/02/10 04:48:43;;;;;;;;;;;;;;;-4.95;69.88;99895.44;4997910;28;19925;-61
2023/02/10 04:51:12;;;;;;;;;;;;;;;-4.93;69.98;99897.91;5008870;28;19981;-60
2023/02/10 04:53:40;;;;;;;;;;;;;;;-4.97;69.40;99901.88;5021512;28;19930;-60
2023/02/10 04:56:09;;;;;;;;;;;;;;;-4.85;68.89;99904.03;4994044;28;19926;-60
2023/02/10 04:58:37;;;;;;;;;;;;;;;-4.77;69.09;99911.19;5019606;28;19945;-60
2023/02/10 05:01:05;;;;;;;;;;;;;;;-4.66;68.59;99908.22;4999178;28;19981;-60
2023/02/10 05:03:35;;;;;;;;;;;;;;;-4.67;68.46;99911.03;5002881;28;19976;-60
2023/02/10 05:06:06;;;;;;;;;;;;;;;-4.65;68.25;99909.03;5008236;28;19925;-60
2023/02/10 05:08:38;;;;;;;;;;;;;;;-4.76;68.20;99907.53;5002450;28;20374;-61
2023/02/10 05:11:05;;;;;;;;;;;;;;;-4.81;68.15;99913.31;5006458;28;19941;-61
2023/02/10 05:13:33;;;;;;;;;;;;;;;-4.91;68.12;99907.34;5002594;28;19933;-61
2023/02/10 05:16:02;;;;;;;;;;;;;;;-4.95;68.87;99913.97;5000584;28;19933;-60
2023/02/10 05:18:34;;;;;;;;;;;;;;;-4.96;68.23;99907.00;5007061;28;19930;-60
2023/02/10 05:21:03;;;;;;;;;;;;;;;-4.83;68.48;99902.06;5010129;28;19925;-59
2023/02/10 05:23:58;;;;;;;;;;;;;;;-4.82;67.89;99894.94;5008400;28;19933;-60
2023/02/10 05:26:26;;;;;;;;;;;;;;;-4.96;67.74;99899.03;5004406;28;19925;-60
2023/02/10 05:28:54;;;;;;;;;;;;;;;-4.93;68.08;99900.56;5012725;28;19932;-60
2023/02/10 05:31:21;;;;;;;;;;;;;;;-4.83;67.99;99907.38;5000330;28;19929;-59
2023/02/10 05:33:49;;;;;;;;;;;;;;;-4.79;67.90;99903.41;5007585;28;19932;-59
2023/02/10 05:36:18;;;;;;;;;;;;;;;-4.83;67.79;99911.84;5003411;28;19933;-60
2023/02/10 05:41:34;;;;;;;;;;;;;;;-5.07;67.92;99926.69;4980879;28;19936;-62
2023/02/10 05:44:03;;;;;;;;;;;;;;;-5.09;68.02;99923.38;5012271;28;19929;-60
2023/02/10 05:46:31;;;;;;;;;;;;;;;-4.95;68.32;99927.25;5003555;28;19940;-60
2023/02/10 05:48:59;;;;;;;;;;;;;;;-4.93;68.10;99927.06;4996610;28;19925;-60
2023/02/10 05:51:28;;;;;;;;;;;;;;;-4.83;67.78;99928.59;5006147;28;19930;-59
2023/02/10 05:53:57;;;;;;;;;;;;;;;-4.78;68.28;99931.56;5007006;28;20200;-59
2023/02/10 05:56:50;;;;;;;;;;;;;;;-4.88;68.22;99922.94;5013345;28;20068;-60
2023/02/10 05:59:18;;;;;;;;;;;;;;;-4.96;68.11;99925.56;5006476;28;19925;-60
2023/02/10 06:01:45;;;;;;;;;;;;;;;-4.91;68.59;99933.03;4999516;28;19932;-60
2023/02/10 06:04:13;;;;;;;;;;;;;;;-4.81;67.97;99934.53;5007845;28;19926;-60
2023/02/10 06:06:42;;;;;;;;;;;;;;;-4.78;67.87;99934.22;5003095;28;19928;-60
2023/02/10 06:09:10;;;;;;;;;;;;;;;-4.83;67.40;99928.59;5007085;28;19925;-60
2023/02/10 06:11:40;;;;;;;;;;;;;;;-4.90;67.54;99937.31;5002547;28;19969;-60
2023/02/10 06:14:08;;;;;;;;;;;;;;;-4.94;68.01;99936.84;5027745;28;20267;-60
2023/02/10 06:16:37;;;;;;;;;;;;;;;-4.96;68.38;99948.59;4999735;28;20373;-60
2023/02/10 06:19:05;;;;;;;;;;;;;;;-4.91;68.40;99956.88;5006406;28;19934;-59
2023/02/10 06:21:33;;;;;;;;;;;;;;;-4.97;68.79;99958.34;4996725;28;19926;-60
2023/02/10 06:24:07;;;;;;;;;;;;;;;-4.81;67.61;99947.78;5007808;28;19941;-60
2023/02/10 06:26:35;;;;;;;;;;;;;;;-4.92;67.46;99966.66;4990640;28;19929;-60
2023/02/10 06:29:02;;;;;;;;;;;;;;;-5.06;68.28;99964.63;4995707;28;19929;-60
2023/02/10 06:31:31;;;;;;;;;;;;;;;-5.06;67.74;99969.91;4999757;28;20357;-61
2023/02/10 06:33:58;;;;;;;;;;;;;;;-5.21;68.53;99975.00;5011907;28;19925;-60
2023/02/10 06:36:26;;;;;;;;;;;;;;;-5.33;69.35;99978.91;4992879;28;19948;-60
2023/02/10 06:38:54;;;;;;;;;;;;;;;-5.22;69.36;99988.41;5014413;28;20562;-60
2023/02/10 06:41:24;;;;;;;;;;;;;;;-5.16;68.77;99991.28;5012501;28;19926;-60
2023/02/10 06:43:52;;;;;;;;;;;;;;;-5.08;68.95;99990.47;4990786;28;19945;-63
2023/02/10 06:46:20;;;;;;;;;;;;;;;-5.16;67.96;99993.91;5012935;28;19925;-59
2023/02/10 06:48:48;;;;;;;;;;;;;;;-5.01;68.45;100002.94;5015200;28;19965;-60
2023/02/10 06:51:17;;;;;;;;;;;;;;;-4.96;68.26;99997.13;5011897;28;19964;-60
2023/02/10 06:53:45;;;;;;;;;;;;;;;-4.92;67.90;100002.94;4992811;28;20402;-60
2023/02/10 06:56:13;;;;;;;;;;;;;;;-4.87;67.18;100009.44;5007903;28;19945;-60
2023/02/10 06:58:42;;;;;;;;;;;;;;;-4.71;66.49;100015.78;5008935;28;19976;-60
2023/02/10 07:01:11;;;;;;;;;;;;;;;-4.80;66.46;100012.25;5008507;28;20033;-59
2023/02/10 07:03:39;;;;;;;;;;;;;;;-4.93;66.46;100012.72;5011769;28;19926;-59
2023/02/10 07:06:07;;;;;;;;;;;;;;;-4.95;66.19;100003.25;5005844;28;19929;-60
2023/02/10 07:08:35;;;;;;;;;;;;;;;-4.92;66.85;100017.03;5011876;28;20293;-59
2023/02/10 07:11:03;;;;;;;;;;;;;;;-5.01;67.26;100007.38;4993566;28;19970;-60
2023/02/10 07:13:31;;;;;;;;;;;;;;;-4.91;66.82;100016.03;5008097;28;19991;-60
2023/02/10 07:16:01;;;;;;;;;;;;;;;-4.76;66.67;100003.00;5000202;28;19932;-60
2023/02/10 07:18:29;;;;;;;;;;;;;;;-4.74;65.93;99998.34;5008487;28;20379;-60
2023/02/10 07:20:58;;;;;;;;;;;;;;;-4.78;66.37;100002.34;5019997;28;19932;-60
2023/02/10 07:23:26;;;;;;;;;;;;;;;-4.73;66.12;100004.50;5010391;28;20276;-59
2023/02/10 07:26:04;;;;;;;;;;;;;;;-4.77;66.84;100002.16;5014086;28;20346;-60
2023/02/10 07:28:32;;;;;;;;;;;;;;;-4.70;66.79;100004.16;5017448;28;19948;-59
2023/02/10 07:31:01;;;;;;;;;;;;;;;-4.65;66.81;100002.69;5000959;28;19926;-59
2023/02/10 07:33:30;;;;;;;;;;;;;;;-4.62;66.05;99999.72;5014617;28;19925;-60
2023/02/10 07:35:59;;;;;;;;;;;;;;;-4.59;65.90;100004.69;5013407;28;19933;-59
2023/02/10 07:38:27;;;;;;;;;;;;;;;-4.53;66.49;100000.56;5016416;28;19925;-60
2023/02/10 07:40:55;;;;;;;;;;;;;;;-4.38;66.27;99992.78;5010360;28;19932;-60
2023/02/10 07:43:23;;;;;;;;;;;;;;;-4.25;66.32;100007.25;5010415;28;19976;-59
2023/02/10 07:46:05;;;;;;;;;;;;;;;-4.12;65.62;100000.63;4977134;28;19929;-60
2023/02/10 07:48:36;;;;;;;;;;;;;;;-4.11;65.64;100002.28;5008446;28;19926;-61
2023/02/10 07:51:04;;;;;;;;;;;;;;;-4.15;65.83;100000.97;5010089;28;20298;-59
2023/02/10 07:53:32;;;;;;;;;;;;;;;-4.07;65.94;99999.13;5007969;28;19925;-59
2023/02/10 07:56:01;;;;;;;;;;;;;;;-3.97;65.68;99999.78;5010083;28;19925;-60
2023/02/10 07:58:29;;;;;;;;;;;;;;;-3.93;65.06;100000.28;4987687;28;19926;-61
2023/02/10 08:01:00;;;;;;;;;;;;;;;-3.89;65.38;100001.59;4990366;28;20016;-60
2023/02/10 08:03:29;;;;;;;;;;;;;;;-3.83;65.67;100000.13;5015939;28;19926;-60
2023/02/10 08:05:57;;;;;;;;;;;;;;;-3.84;65.36;99996.63;5000343;28;19925;-60
2023/02/10 08:08:25;;;;;;;;;;;;;;;-3.80;65.72;100000.59;5002898;28;19937;-60
2023/02/10 08:10:54;;;;;;;;;;;;;;;-3.72;65.89;100010.41;5020408;28;19936;-60
2023/02/10 08:13:22;;;;;;;;;;;;;;;-3.71;65.88;100012.88;5022039;28;19930;-60
2023/02/10 08:15:51;;;;;;;;;;;;;;;-3.52;65.61;100010.84;5018150;28;19925;-60
2023/02/10 08:18:46;;;;;;;;;;;;;;;-3.77;65.99;100016.22;5008095;28;20436;-63
2023/02/10 08:21:20;;;;;;;;;;;;;;;-3.51;65.84;100015.19;5018092;28;19935;-60
2023/02/10 08:23:54;;;;;;;;;;;;;;;-3.55;65.51;100020.00;5011648;28;20313;-60
2023/02/10 08:26:23;;;;;;;;;;;;;;;-3.63;65.81;100027.16;5013267;28;20358;-60
2023/02/10 08:28:54;;;;;;;;;;;;;;;-3.46;65.61;100020.84;5015516;28;19980;-60
2023/02/10 08:31:22;;;;;;;;;;;;;;;-3.34;65.34;100027.44;5009575;28;20029;-60
2023/02/10 08:33:51;;;;;;;;;;;;;;;-3.20;65.32;100037.34;5017548;28;20378;-59
2023/02/10 08:36:21;;;;;;;;;;;;;;;-3.02;65.55;100039.00;5010909;28;19933;-60
2023/02/10 08:38:50;;;;;;;;;;;;;;;-2.92;65.09;100043.09;5017495;28;19925;-60
2023/02/10 08:41:19;;;;;;;;;;;;;;;-2.79;64.77;100039.88;5015415;28;19932;-60
2023/02/10 08:43:47;;;;;;;;;;;;;;;-2.77;64.73;100042.38;5008698;28;19934;-60
2023/02/10 08:46:15;;;;;;;;;;;;;;;-2.74;65.07;100040.19;5006584;28;19929;-60
2023/02/10 08:48:43;;;;;;;;;;;;;;;-2.64;64.87;100037.34;5010249;28;19926;-60
2023/02/10 08:51:11;;;;;;;;;;;;;;;-2.57;65.14;100026.81;5007035;28;19932;-60
2023/02/10 08:53:41;;;;;;;;;;;;;;;-2.49;65.11;100035.59;5014448;28;19926;-60
2023/02/10 08:56:16;;;;;;;;;;;;;;;-2.35;65.03;100034.00;4992645;28;19926;-60
2023/02/10 08:58:44;;;;;;;;;;;;;;;-2.24;64.51;100041.59;5008066;28;20371;-60
2023/02/10 09:01:13;;;;;;;;;;;;;;;-2.19;64.40;100036.56;4987987;28;19926;-60
2023/02/10 09:03:41;;;;;;;;;;;;;;;-2.10;64.58;100042.66;5004367;28;20016;-60
2023/02/10 09:06:13;;;;;;;;;;;;;;;-1.96;64.31;100041.09;5009750;28;19925;-60
2023/02/10 09:08:42;;;;;;;;;;;;;;;-1.82;64.19;100042.13;5005706;28;19925;-60
2023/02/10 09:11:13;;;;;;;;;;;;;;;-1.73;63.84;100044.53;5019287;28;20458;-61
2023/02/10 09:14:07;;;;;;;;;;;;;;;-1.77;64.12;100048.56;5009259;28;19933;-60
2023/02/10 09:16:35;;;;;;;;;;;;;;;-1.62;64.11;100052.09;4993620;28;19936;-60
2023/02/10 09:19:03;;;;;;;;;;;;;;;-1.52;63.39;100059.84;5013738;28;19979;-60
2023/02/10 09:21:32;;;;;;;;;;;;;;;-1.36;63.55;100059.72;5009344;28;19929;-59
2023/02/10 09:24:15;;;;;;;;;;;;;;;-1.26;63.39;100056.78;5018592;28;20398;-60
2023/02/10 09:26:43;;;;;;;;;;;;;;;-1.20;63.42;100068.56;4981260;28;19926;-60
2023/02/10 09:29:12;;;;;;;;;;;;;;;-1.12;62.89;100055.97;4993621;28;19925;-60
2023/02/10 09:31:40;;;;;;;;;;;;;;;-1.02;63.21;100062.84;5008690;28;20422;-60
2023/02/10 09:34:08;;;;;;;;;;;;;;;-0.93;62.77;100061.75;5016584;28;19951;-60
2023/02/10 09:36:37;;;;;;;;;;;;;;;-0.89;62.60;100063.06;5014540;28;20612;-60
2023/02/10 09:39:05;;;;;;;;;;;;;;;-0.69;62.12;100074.84;5001427;28;20331;-60
2023/02/10 09:41:42;;;;;;;;;;;;;;;-0.57;62.14;100069.84;5010621;28;19929;-60
2023/02/10 09:44:12;;;;;;;;;;;;;;;-0.48;61.58;100065.22;5003057;28;19941;-60
2023/02/10 09:46:46;;;;;;;;;;;;;;;-0.46;61.46;100065.88;5000628;28;19944;-60
2023/02/10 09:49:20;;;;;;;;;;;;;;;-0.31;61.49;100072.03;4999123;28;19933;-60
2023/02/10 09:51:50;;;;;;;;;;;;;;;-0.25;61.19;100065.91;5005997;28;19926;-60
2023/02/10 09:57:38;;;;;;;;;;;;;;;0.00;60.58;100066.41;4987562;28;20397;-59
2023/02/10 10:00:13;;;;;;;;;;;;;;;0.07;60.44;100063.78;4999197;28;19952;-60
2023/02/10 10:02:43;;;;;;;;;;;;;;;0.20;60.30;100070.06;4991029;28;20411;-60
2023/02/10 10:05:15;;;;;;;;;;;;;;;0.07;60.14;100067.28;5019595;28;20031;-60
2023/02/10 10:08:08;;;;;;;;;;;;;;;0.30;60.07;100068.94;5010778;28;19952;-60
2023/02/10 10:10:40;;;;;;;;;;;;;;;0.40;59.66;100064.91;5003147;28;19929;-60
2023/02/10 10:13:11;;;;;;;;;;;;;;;0.47;59.43;100065.78;5018262;28;19932;-61
2023/02/10 10:15:40;;;;;;;;;;;;;;;0.54;59.31;100065.03;5002922;28;19941;-60
2023/02/10 10:18:11;;;;;;;;;;;;;;;0.62;58.98;100067.56;5018891;28;19961;-60
2023/02/10 10:20:48;;;;;;;;;;;;;;;0.72;58.98;100063.53;5018445;28;19982;-60
2023/02/10 10:23:41;;;;;;;;;;;;;;;0.77;59.09;100065.63;4998869;28;19940;-60
2023/02/10 10:26:13;;;;;;;;;;;;;;;0.91;58.65;100067.38;4989121;28;20371;-60
2023/02/10 10:29:15;;;;;;;;;;;;;;;1.07;57.97;100070.78;5012420;28;20385;-60
2023/02/10 10:31:44;;;;;;;;;;;;;;;1.14;58.06;100066.28;5005960;28;19926;-60
2023/02/10 10:34:14;;;;;;;;;;;;;;;1.11;57.23;100066.66;5007845;28;19968;-60
2023/02/10 10:36:44;;;;;;;;;;;;;;;1.12;57.59;100062.94;4989162;28;20037;-59
2023/02/10 10:39:14;;;;;;;;;;;;;;;1.28;57.06;100068.00;5003214;28;19933;-60
2023/02/10 10:42:10;;;;;;;;;;;;;;;1.45;56.66;100068.50;5022593;28;20016;-60
2023/02/10 10:44:39;;;;;;;;;;;;;;;1.62;56.44;100067.13;4996441;28;19928;-60
2023/02/10 10:47:12;;;;;;;;;;;;;;;1.74;56.14;100052.13;5015563;28;20305;-60
2023/02/10 10:49:42;;;;;;;;;;;;;;;1.84;55.80;100054.41;5005751;28;19926;-60
2023/02/10 10:52:18;;;;;;;;;;;;;;;1.78;56.00;100052.56;4986962;28;19925;-60
2023/02/10 10:55:11;;;;;;;;;;;;;;;1.80;55.66;100053.16;4999761;28;19987;-59
2023/02/10 10:57:40;;;;;;;;;;;;;;;1.90;55.95;100045.56;5012098;28;19933;-60
2023/02/10 11:00:17;;;;;;;;;;;;;;;1.98;55.57;100037.34;5003691;28;20284;-59
2023/02/10 11:02:55;;;;;;;;;;;;;;;2.15;54.34;100043.16;5012218;28;19937;-60
2023/02/10 11:05:23;;;;;;;;;;;;;;;2.23;54.45;100050.97;5014711;28;19925;-59
2023/02/10 11:07:52;;;;;;;;;;;;;;;2.26;53.85;100044.41;4999488;28;19934;-60
2023/02/10 11:10:21;;;;;;;;;;;;;;;2.30;54.50;100034.91;4999073;28;19929;-60
2023/02/10 11:12:49;;;;;;;;;;;;;;;2.29;54.63;100044.81;5013739;28;19936;-60
2023/02/10 11:15:30;;;;;;;;;;;;;;;2.17;54.50;100040.25;5011095;28;19925;-60
2023/02/10 11:17:58;;;;;;;;;;;;;;;2.15;54.89;100039.63;5011522;28;20038;-60
2023/02/10 11:20:28;;;;;;;;;;;;;;;2.20;54.60;100045.22;5005603;28;20399;-59
2023/02/10 11:22:58;;;;;;;;;;;;;;;2.14;54.14;100035.31;5004561;28;19929;-59
2023/02/10 11:25:27;;;;;;;;;;;;;;;2.18;54.88;100031.16;4988234;28;19926;-60
2023/02/10 11:27:55;;;;;;;;;;;;;;;2.14;55.23;100033.47;5011320;28;19925;-59
2023/02/10 11:30:25;;;;;;;;;;;;;;;2.14;55.25;100035.31;4984112;28;19937;-59
2023/02/10 11:32:55;;;;;;;;;;;;;;;2.20;54.68;100031.81;5020909;28;19933;-59
2023/02/10 11:35:23;;;;;;;;;;;;;;;2.31;54.61;100026.66;5008709;28;19925;-60
2023/02/10 11:37:52;;;;;;;;;;;;;;;2.43;54.84;100023.34;5011121;28;19926;-59
2023/02/10 11:40:22;;;;;;;;;;;;;;;2.54;53.72;100020.03;5010765;28;19929;-60
2023/02/10 11:42:50;;;;;;;;;;;;;;;2.60;53.44;100019.22;5007065;28;19926;-59
2023/02/10 11:45:20;;;;;;;;;;;;;;;2.67;53.87;100019.22;4984330;28;20021;-59
2023/02/10 11:47:48;;;;;;;;;;;;;;;2.63;54.16;100025.00;5008407;28;20020;-59
2023/02/10 11:53:14;;;;;;;;;;;;;;;2.77;53.87;100008.88;4990709;28;19933;-59
2023/02/10 11:55:43;;;;;;;;;;;;;;;2.94;53.48;100012.78;5015749;28;19925;-60
2023/02/10 12:01:09;;;;;;;;;;;;;;;2.92;53.75;100014.00;5009487;28;19981;-62
2023/02/10 12:03:47;;;;;;;;;;;;;;;2.98;53.73;100015.84;5012222;28;19936;-57
2023/02/10 12:06:21;;;;;;;;;;;;;;;2.90;53.31;100016.91;5015145;28;19926;-57
2023/02/10 12:09:05;;;;;;;;;;;;;;;2.85;53.52;100008.66;5007596;28;21263;-60
2023/02/10 12:11:36;;;;;;;;;;;;;;;2.94;54.03;100020.00;5001425;28;20417;-66
2023/02/10 12:14:07;;;;;;;;;;;;;;;2.97;54.02;100016.88;5024064;28;19926;-62
2023/02/10 12:16:36;;;;;;;;;;;;;;;2.89;54.02;100018.78;5011332;28;19932;-59
2023/02/10 12:19:06;;;;;;;;;;;;;;;2.80;53.53;100008.47;5014928;28;19932;-57
2023/02/10 12:22:08;;;;;;;;;;;;;;;2.83;53.78;99998.13;5017452;28;19936;-58
2023/02/10 12:24:51;;;;;;;;;;;;;;;2.95;54.51;99995.63;4936522;29;19931;-57
2023/02/10 12:27:26;;;;;;;;;;;;;;;2.91;54.08;99999.75;4924832;29;19927;-58
2023/02/10 12:29:58;;;;;;;;;;;;;;;2.96;53.72;99991.91;4924624;29;19935;-58
2023/02/10 12:32:28;;;;;;;;;;;;;;;3.02;53.27;99988.38;4920520;29;19963;-58
2023/02/10 12:35:01;;;;;;;;;;;;;;;2.98;54.17;99987.13;4938114;29;20348;-58
2023/02/10 12:37:31;;;;;;;;;;;;;;;3.09;53.90;99991.03;4928708;29;19926;-57
2023/02/10 12:43:51;;;;;;;;;;;;;;;3.28;53.86;99983.94;4926894;29;20373;-59
2023/02/10 12:46:23;;;;;;;;;;;;;;;3.37;53.29;99986.19;4904131;29;20348;-58
2023/02/10 12:48:57;;;;;;;;;;;;;;;3.49;53.02;99980.94;4930268;29;19937;-58
2023/02/10 12:51:29;;;;;;;;;;;;;;;3.44;53.12;99988.84;4922891;29;19983;-58
2023/02/10 12:53:59;;;;;;;;;;;;;;;3.39;53.05;99973.34;4931194;29;19966;-58
2023/02/10 12:56:28;;;;;;;;;;;;;;;3.27;52.95;99979.63;4997934;28;20086;-58
2023/02/10 12:58:57;;;;;;;;;;;;;;;3.16;53.74;99981.09;4993502;28;20028;-58
2023/02/10 13:01:27;;;;;;;;;;;;;;;3.17;53.26;99981.94;5002954;28;19929;-57
2023/02/10 13:03:57;;;;;;;;;;;;;;;3.17;53.81;99976.56;4999943;28;20000;-58
2023/02/10 13:06:26;;;;;;;;;;;;;;;3.07;53.81;99977.00;5007341;28;19933;-58
2023/02/10 13:08:55;;;;;;;;;;;;;;;3.13;54.25;99971.59;4998018;28;19930;-57
2023/02/10 13:11:26;;;;;;;;;;;;;;;3.08;53.87;99979.47;5007317;28;19944;-58
2023/02/10 13:13:58;;;;;;;;;;;;;;;2.99;54.16;99975.38;5011967;28;19964;-59
2023/02/10 13:16:31;;;;;;;;;;;;;;;3.05;54.62;99969.16;4997134;28;19926;-59
2023/02/10 13:19:01;;;;;;;;;;;;;;;3.06;53.94;99964.59;5010421;28;19934;-58
2023/02/10 13:21:30;;;;;;;;;;;;;;;3.13;54.32;99963.53;5018615;28;19932;-58
2023/02/10 13:24:00;;;;;;;;;;;;;;;3.26;54.19;99970.72;4999832;28;19930;-58
2023/02/10 13:26:39;;;;;;;;;;;;;;;3.31;54.07;99970.09;5013964;28;19987;-59